This is the latest recevied weather packets stored in our database for station/object DG0PX-12. If no packets are shown the sender has not sent any weather packets the latest 10 day(s).
| Time | Temp. | Humidity | Pressure | Rain* | Wind** | Luminosity | Snow |
|---|---|---|---|---|---|---|---|
| 1787666364 | 25° C | 57% | 948 hPa | - | - | - | - |
| 1787665464 | 22.78° C | 66% | 947.8 hPa | - | - | - | - |
| 1787664564 | 23.89° C | 63% | 947.7 hPa | - | - | - | - |
| 1787663664 | 25° C | 58% | 947.6 hPa | - | - | - | - |
| 1787662764 | 22.78° C | 65% | 947.4 hPa | - | - | - | - |
| 1787661864 | 23.33° C | 62% | 947.4 hPa | - | - | - | - |
| 1787660964 | 23.33° C | 61% | 947.3 hPa | - | - | - | - |
| 1787660064 | 25.56° C | 53% | 947.4 hPa | - | - | - | - |
| 1787659163 | 24.44° C | 56% | 947.2 hPa | - | - | - | - |
| 1787658263 | 23.33° C | 59% | 947.1 hPa | - | - | - | - |
| 1787657363 | 23.33° C | 59% | 947 hPa | - | - | - | - |
| 1787656463 | 24.44° C | 57% | 946.9 hPa | - | - | - | - |
| 1787655563 | 23.89° C | 59% | 946.8 hPa | - | - | - | - |
| 1787654663 | 24.44° C | 57% | 946.8 hPa | - | - | - | - |
| 1787653763 | 22.78° C | 63% | 946.4 hPa | - | - | - | - |
| 1787652863 | 25.56° C | 54% | 946.5 hPa | - | - | - | - |
| 1787651963 | 23.33° C | 58% | 946.3 hPa | - | - | - | - |
| 1787651063 | 22.22° C | 62% | 946.2 hPa | - | - | - | - |
| 1787650163 | 23.33° C | 55% | 945.9 hPa | - | - | - | - |
| 1787649263 | 23.89° C | 52% | 945.7 hPa | - | - | - | - |
| 1787648363 | 23.33° C | 52% | 945.6 hPa | - | - | - | - |
| 1787647463 | 23.33° C | 51% | 945.5 hPa | - | - | - | - |
| 1787646563 | 23.89° C | 50% | 945.4 hPa | - | - | - | - |
| 1787645662 | 24.44° C | 47% | 945.3 hPa | - | - | - | - |
| 1787644762 | 23.33° C | 50% | 945.1 hPa | - | - | - | - |
* Rain since midnight (hover to see other rain measurements)
** Current wind speed in m/s (hover to see current wind gust speed)